Time;durP1;ratioP1;P1;durP2;ratioP2;P2;SDS_P1;SDS_P2;PMS_P1;PMS_P2;Temp;Humidity;BMP_temperature;BMP_pressure;BME280_temperature;BME280_humidity;BME280_pressure;Samples;Min_cycle;Max_cycle;Signal;HPM_P1;HPM_P2
2023/10/03 00:00:24;;;;;;;31.77;18.00;;;17.90;99.90;;;;;;5043565;28;20174;-78
2023/10/03 00:02:55;;;;;;;29.70;18.05;;;17.90;99.90;;;;;;5036492;28;20517;-78
2023/10/03 00:05:28;;;;;;;38.63;21.23;;;17.80;99.90;;;;;;5046464;28;20057;-79
2023/10/03 00:07:55;;;;;;;42.83;22.42;;;17.80;99.90;;;;;;5040385;28;20053;-79
2023/10/03 00:10:21;;;;;;;32.70;18.77;;;17.80;99.90;;;;;;5049176;28;20051;-79
2023/10/03 00:12:48;;;;;;;33.53;19.23;;;17.80;99.90;;;;;;5050754;28;20040;-79
2023/10/03 00:15:16;;;;;;;47.28;23.30;;;17.80;99.90;;;;;;5035323;28;20395;-78
2023/10/03 00:17:41;;;;;;;40.22;22.83;;;17.80;99.90;;;;;;5045055;28;20413;-79
2023/10/03 00:20:08;;;;;;;39.00;23.17;;;17.80;99.90;;;;;;5046326;28;20057;-78
2023/10/03 00:22:34;;;;;;;35.42;19.33;;;17.80;99.90;;;;;;5023364;28;20033;-79
2023/10/03 00:25:01;;;;;;;27.30;16.52;;;17.80;99.90;;;;;;5051019;28;20053;-78
2023/10/03 00:27:28;;;;;;;42.70;24.02;;;17.80;99.90;;;;;;5048075;28;20049;-78
2023/10/03 00:29:55;;;;;;;37.90;22.45;;;17.70;99.90;;;;;;5027510;28;20142;-78
2023/10/03 00:32:20;;;;;;;42.55;23.58;;;17.70;99.90;;;;;;5045386;28;20175;-78
2023/10/03 00:34:49;;;;;;;32.53;18.65;;;17.70;99.90;;;;;;5046381;28;20474;-79
2023/10/03 00:37:15;;;;;;;41.75;22.95;;;17.70;99.90;;;;;;5041547;28;20042;-78
2023/10/03 00:39:41;;;;;;;34.78;19.35;;;17.70;99.90;;;;;;5054372;28;20055;-78
2023/10/03 00:42:09;;;;;;;31.05;15.95;;;17.70;99.90;;;;;;5049648;28;20049;-79
2023/10/03 00:44:37;;;;;;;38.42;21.40;;;17.70;99.90;;;;;;5030965;28;20056;-78
2023/10/03 00:47:07;;;;;;;31.27;19.38;;;17.60;99.90;;;;;;5042903;28;20045;-78
2023/10/03 00:49:34;;;;;;;37.75;20.25;;;17.60;99.90;;;;;;5046875;28;20049;-78
2023/10/03 00:52:01;;;;;;;37.88;20.77;;;17.60;99.90;;;;;;5043223;28;20593;-78
2023/10/03 00:54:27;;;;;;;31.80;19.48;;;17.60;99.90;;;;;;5039573;28;20052;-78
2023/10/03 00:56:53;;;;;;;32.80;19.05;;;17.60;99.90;;;;;;5028943;28;20084;-79
2023/10/03 00:59:19;;;;;;;36.60;20.90;;;17.60;99.90;;;;;;5039011;28;20081;-78
2023/10/03 01:01:46;;;;;;;37.83;21.60;;;17.60;99.90;;;;;;5047782;28;20071;-78
2023/10/03 01:04:19;;;;;;;39.33;21.90;;;17.60;99.90;;;;;;5045622;28;20488;-79
2023/10/03 01:06:47;;;;;;;34.92;19.50;;;17.60;99.90;;;;;;5039532;28;20479;-78
2023/10/03 01:09:24;;;;;;;50.47;22.95;;;17.60;99.90;;;;;;5044878;28;20103;-77
2023/10/03 01:11:53;;;;;;;39.55;21.10;;;17.60;99.90;;;;;;5038429;28;20068;-79
2023/10/03 01:14:21;;;;;;;39.33;20.92;;;17.50;99.90;;;;;;5023689;28;20045;-78
2023/10/03 01:16:48;;;;;;;39.47;20.08;;;17.60;99.90;;;;;;5045684;28;20056;-79
2023/10/03 01:19:14;;;;;;;40.70;20.17;;;17.50;99.90;;;;;;5048987;28;20068;-78
2023/10/03 01:21:41;;;;;;;37.42;19.75;;;17.50;99.90;;;;;;5045570;28;20056;-79
2023/10/03 01:24:09;;;;;;;36.33;19.67;;;17.50;99.90;;;;;;5040290;28;20463;-78
2023/10/03 01:26:35;;;;;;;36.78;19.50;;;17.50;99.90;;;;;;5045049;28;20446;-79
2023/10/03 01:29:02;;;;;;;36.35;20.33;;;17.50;99.90;;;;;;5044686;28;20053;-78
2023/10/03 01:31:28;;;;;;;36.20;18.80;;;17.50;99.90;;;;;;5043526;28;20583;-78
2023/10/03 01:33:54;;;;;;;38.40;18.58;;;17.50;99.90;;;;;;5040479;28;20140;-79
2023/10/03 01:36:22;;;;;;;40.75;19.65;;;17.50;99.90;;;;;;5048247;28;20597;-77
2023/10/03 01:38:48;;;;;;;38.47;19.15;;;17.50;99.90;;;;;;5046765;28;20537;-78
2023/10/03 01:41:13;;;;;;;35.22;18.13;;;17.50;99.90;;;;;;5042729;28;20124;-78
2023/10/03 01:43:43;;;;;;;30.30;15.52;;;17.40;99.90;;;;;;5046615;28;20040;-79
2023/10/03 01:46:11;;;;;;;31.33;17.48;;;17.40;99.90;;;;;;5043522;28;20125;-78
2023/10/03 01:48:37;;;;;;;34.63;17.52;;;17.40;99.90;;;;;;5041588;28;20049;-77
2023/10/03 01:51:03;;;;;;;40.47;17.63;;;17.40;99.90;;;;;;5026268;28;20638;-78
2023/10/03 01:53:29;;;;;;;35.92;17.50;;;17.40;99.90;;;;;;5038608;28;20053;-79
2023/10/03 01:55:56;;;;;;;35.45;17.75;;;17.40;99.90;;;;;;5027306;28;20048;-78
2023/10/03 01:58:24;;;;;;;38.13;18.00;;;17.40;99.90;;;;;;5042904;28;20045;-78
2023/10/03 02:00:50;;;;;;;35.17;17.83;;;17.40;99.90;;;;;;5041256;28;20127;-77
2023/10/03 02:03:18;;;;;;;37.60;18.55;;;17.40;99.90;;;;;;5040197;28;20044;-78
2023/10/03 02:05:44;;;;;;;35.20;16.17;;;17.40;99.90;;;;;;5049901;28;20072;-78
2023/10/03 02:08:17;;;;;;;34.08;17.25;;;17.40;99.90;;;;;;5040138;28;20053;-78
2023/10/03 02:10:52;;;;;;;35.65;17.10;;;17.50;99.90;;;;;;5032364;28;20583;-78
2023/10/03 02:13:21;;;;;;;36.38;18.73;;;17.50;99.90;;;;;;5034803;28;20539;-78
2023/10/03 02:15:53;;;;;;;33.05;16.48;;;17.50;99.90;;;;;;5039604;28;20041;-78
2023/10/03 02:18:20;;;;;;;32.78;16.45;;;17.50;99.90;;;;;;5039997;28;20075;-78
2023/10/03 02:20:51;;;;;;;31.30;15.90;;;17.50;99.90;;;;;;5046106;28;20056;-79
2023/10/03 02:23:25;;;;;;;36.33;17.65;;;17.50;99.90;;;;;;5046212;28;20061;-78
2023/10/03 02:25:54;;;;;;;32.28;16.75;;;17.50;99.90;;;;;;5044527;28;20048;-78
2023/10/03 02:28:20;;;;;;;35.25;16.88;;;17.50;99.90;;;;;;5048159;28;20056;-78
2023/10/03 02:30:48;;;;;;;33.50;16.70;;;17.50;99.90;;;;;;5038200;28;20055;-78
2023/10/03 02:33:15;;;;;;;34.85;17.20;;;17.50;99.90;;;;;;5048094;28;20088;-78
2023/10/03 02:35:42;;;;;;;31.73;15.63;;;17.50;99.90;;;;;;5043082;28;20041;-78
2023/10/03 02:38:11;;;;;;;37.55;16.63;;;17.50;99.90;;;;;;5048278;28;20497;-79
2023/10/03 02:40:40;;;;;;;33.97;16.85;;;17.50;99.90;;;;;;5046613;28;20053;-78
2023/10/03 02:43:06;;;;;;;33.45;16.00;;;17.60;99.90;;;;;;5040354;28;20480;-79
2023/10/03 02:45:32;;;;;;;32.83;16.20;;;17.50;99.90;;;;;;5045251;28;20735;-78
2023/10/03 02:48:03;;;;;;;33.80;16.77;;;17.50;99.90;;;;;;5027443;28;20132;-76
2023/10/03 02:50:32;;;;;;;32.92;16.92;;;17.60;99.90;;;;;;5021346;28;20040;-79
2023/10/03 02:52:59;;;;;;;35.83;17.15;;;17.60;99.90;;;;;;5047380;28;20072;-78
2023/10/03 02:55:25;;;;;;;30.42;16.30;;;17.60;99.90;;;;;;5052220;28;20095;-78
2023/10/03 02:57:51;;;;;;;35.65;16.73;;;17.50;99.90;;;;;;5052194;28;20041;-78
2023/10/03 03:00:17;;;;;;;35.50;16.77;;;17.50;99.90;;;;;;5049800;28;20071;-79
2023/10/03 03:02:47;;;;;;;33.25;16.17;;;17.50;99.90;;;;;;5049291;28;20076;-80
2023/10/03 03:05:15;;;;;;;35.35;16.98;;;17.50;99.90;;;;;;5045203;28;20088;-79
2023/10/03 03:07:46;;;;;;;34.67;16.52;;;17.60;99.90;;;;;;5043671;28;20123;-78
2023/10/03 03:10:14;;;;;;;40.22;17.25;;;17.50;99.90;;;;;;5036937;28;20590;-78
2023/10/03 03:12:44;;;;;;;31.67;14.63;;;17.50;99.90;;;;;;5038491;28;20048;-79
2023/10/03 03:15:26;;;;;;;36.95;17.13;;;17.50;99.90;;;;;;5050535;28;20045;-78
2023/10/03 03:17:53;;;;;;;32.30;15.35;;;17.50;99.90;;;;;;5049928;28;20057;-78
2023/10/03 03:20:25;;;;;;;33.65;15.90;;;17.60;99.90;;;;;;5046323;28;20424;-78
2023/10/03 03:22:51;;;;;;;33.33;16.77;;;17.60;99.90;;;;;;5050074;28;20053;-78
2023/10/03 03:28:15;;;;;;;35.75;17.25;;;17.60;99.90;;;;;;5040811;28;20107;-78
2023/10/03 03:30:45;;;;;;;34.67;16.92;;;17.60;99.90;;;;;;5032674;28;20057;-78
2023/10/03 03:33:19;;;;;;;33.33;15.82;;;17.60;99.90;;;;;;5044827;28;20094;-78
2023/10/03 03:35:46;;;;;;;36.30;16.70;;;17.60;99.90;;;;;;5052283;28;20049;-78
2023/10/03 03:38:23;;;;;;;35.40;16.52;;;17.60;99.90;;;;;;5043650;28;20128;-78
2023/10/03 03:40:56;;;;;;;31.67;15.77;;;17.60;99.90;;;;;;5047829;28;20041;-79
2023/10/03 03:43:24;;;;;;;38.90;16.60;;;17.60;99.90;;;;;;5054215;28;20082;-79
2023/10/03 03:45:51;;;;;;;34.42;14.80;;;17.70;99.90;;;;;;5052018;28;20044;-78
2023/10/03 03:48:21;;;;;;;34.22;15.05;;;17.70;99.90;;;;;;5036910;28;20052;-78
2023/10/03 03:50:49;;;;;;;31.92;15.30;;;17.70;99.90;;;;;;5038986;28;20103;-78
2023/10/03 03:53:16;;;;;;;32.33;14.32;;;17.70;99.90;;;;;;5040310;28;20046;-79
2023/10/03 03:55:42;;;;;;;32.63;15.38;;;17.70;99.90;;;;;;5034770;28;20045;-78
2023/10/03 03:58:18;;;;;;;31.95;15.65;;;17.70;99.90;;;;;;5034173;28;20045;-78
2023/10/03 04:00:49;;;;;;;31.27;15.18;;;17.70;99.90;;;;;;5043511;28;20091;-78
2023/10/03 04:03:19;;;;;;;31.77;14.68;;;17.80;99.90;;;;;;5053602;28;20129;-77
2023/10/03 04:05:46;;;;;;;34.63;15.23;;;17.80;99.90;;;;;;5051964;28;20057;-78
2023/10/03 04:08:12;;;;;;;32.15;15.35;;;17.80;99.90;;;;;;5051026;28;20052;-78
2023/10/03 04:10:38;;;;;;;32.78;14.75;;;17.80;99.90;;;;;;5051594;28;20045;-78
2023/10/03 04:13:10;;;;;;;31.42;14.68;;;17.80;99.90;;;;;;5051512;28;20053;-78
2023/10/03 04:15:39;;;;;;;31.73;14.75;;;17.80;99.90;;;;;;5052286;28;20084;-78
2023/10/03 04:18:09;;;;;;;31.48;15.07;;;17.80;99.90;;;;;;5039348;28;20056;-78
2023/10/03 04:20:39;;;;;;;34.50;15.25;;;17.80;99.90;;;;;;5045364;28;20440;-78
2023/10/03 04:23:07;;;;;;;32.90;15.43;;;17.80;99.90;;;;;;5052576;28;20052;-78
2023/10/03 04:25:37;;;;;;;32.50;13.63;;;17.80;99.90;;;;;;5053910;28;20041;-78
2023/10/03 04:28:05;;;;;;;29.52;14.45;;;17.80;99.90;;;;;;5016263;28;20045;-79
2023/10/03 04:30:31;;;;;;;32.40;14.32;;;17.80;99.90;;;;;;5043616;28;20127;-78
2023/10/03 04:32:57;;;;;;;32.50;14.75;;;17.80;99.90;;;;;;5041641;28;20124;-78
2023/10/03 04:35:24;;;;;;;30.88;14.43;;;17.80;99.90;;;;;;5053347;28;20469;-78
2023/10/03 04:37:51;;;;;;;29.55;13.95;;;17.90;99.90;;;;;;5046328;28;20087;-77
2023/10/03 04:40:22;;;;;;;30.85;14.40;;;17.90;99.90;;;;;;5041889;28;20049;-78
2023/10/03 04:42:52;;;;;;;30.73;14.43;;;17.90;99.90;;;;;;5044498;28;20041;-78
2023/10/03 04:45:19;;;;;;;25.05;13.13;;;18.00;99.90;;;;;;5037328;28;20107;-78
2023/10/03 04:47:46;;;;;;;30.05;14.00;;;18.00;99.90;;;;;;5016594;28;20053;-78
2023/10/03 04:50:18;;;;;;;30.77;14.30;;;18.00;99.90;;;;;;5039315;28;20060;-78
2023/10/03 04:52:51;;;;;;;33.88;14.25;;;18.00;99.90;;;;;;5037785;28;20056;-78
2023/10/03 04:55:19;;;;;;;30.50;13.50;;;18.00;99.90;;;;;;5028283;28;20049;-77
2023/10/03 04:57:49;;;;;;;31.52;13.90;;;18.00;99.90;;;;;;5028943;28;20045;-79
2023/10/03 05:00:16;;;;;;;29.15;13.68;;;18.10;99.90;;;;;;5041331;28;20041;-78
2023/10/03 05:02:47;;;;;;;27.50;13.73;;;18.10;99.90;;;;;;5047286;28;20388;-78
2023/10/03 05:05:20;;;;;;;31.25;13.32;;;18.10;99.90;;;;;;5043312;28;20058;-79
2023/10/03 05:07:54;;;;;;;;;;;18.10;99.90;;;;;;5036275;28;20047;-80
2023/10/03 05:10:20;;;;;;;27.13;13.40;;;18.20;99.90;;;;;;5051475;28;19921;-79
2023/10/03 05:12:47;;;;;;;30.17;13.75;;;18.20;99.90;;;;;;5042930;28;20163;-79
2023/10/03 05:15:16;;;;;;;26.73;13.07;;;18.20;99.90;;;;;;5042492;28;20051;-77
2023/10/03 05:17:43;;;;;;;27.40;13.88;;;18.20;99.90;;;;;;5036362;28;20048;-77
2023/10/03 05:20:11;;;;;;;29.00;13.13;;;18.20;99.90;;;;;;5042628;28;20127;-78
2023/10/03 05:22:37;;;;;;;30.05;13.38;;;18.20;99.90;;;;;;5047982;28;20057;-77
2023/10/03 05:25:07;;;;;;;29.98;13.27;;;18.20;99.90;;;;;;5046085;28;20053;-77
2023/10/03 05:27:33;;;;;;;29.33;14.75;;;18.20;99.90;;;;;;5044367;28;20041;-79
2023/10/03 05:29:59;;;;;;;28.15;13.10;;;18.20;99.90;;;;;;5048754;28;20408;-79
2023/10/03 05:32:28;;;;;;;33.83;13.18;;;18.20;99.90;;;;;;5049863;28;20052;-77
2023/10/03 05:34:55;;;;;;;30.00;13.38;;;18.20;99.90;;;;;;5049125;28;20500;-77
2023/10/03 05:37:22;;;;;;;27.80;13.15;;;18.20;99.90;;;;;;5041060;28;20466;-77
2023/10/03 05:39:48;;;;;;;28.48;11.60;;;18.20;99.90;;;;;;5043875;28;20045;-78
2023/10/03 05:42:17;;;;;;;26.88;12.63;;;18.30;99.90;;;;;;5046673;28;20118;-75
2023/10/03 05:44:44;;;;;;;27.90;11.88;;;18.30;99.90;;;;;;5052210;28;20047;-79
2023/10/03 05:47:09;;;;;;;28.98;12.25;;;18.30;99.90;;;;;;5052285;28;20146;-79
2023/10/03 05:49:36;;;;;;;26.75;12.43;;;18.30;99.90;;;;;;5048197;28;20392;-78
2023/10/03 05:52:02;;;;;;;26.42;11.88;;;18.30;99.90;;;;;;5046612;28;20088;-79
2023/10/03 05:54:30;;;;;;;25.15;12.25;;;18.30;99.90;;;;;;5049398;28;20081;-77
2023/10/03 05:56:57;;;;;;;29.30;12.13;;;18.30;99.90;;;;;;5047703;28;20103;-77
2023/10/03 05:59:23;;;;;;;28.95;12.77;;;18.40;99.90;;;;;;5041581;28;20068;-78
2023/10/03 06:01:52;;;;;;;28.90;13.07;;;18.40;99.90;;;;;;5037069;28;20136;-80
2023/10/03 06:04:18;;;;;;;30.73;11.93;;;18.40;99.90;;;;;;5026515;28;20091;-77
2023/10/03 06:06:44;;;;;;;30.27;13.07;;;18.40;99.90;;;;;;5047624;28;20038;-77
2023/10/03 06:09:12;;;;;;;27.23;13.32;;;18.50;99.90;;;;;;5042692;28;20045;-77
2023/10/03 06:11:39;;;;;;;33.13;13.13;;;18.50;99.90;;;;;;5041812;28;20044;-78
2023/10/03 06:14:05;;;;;;;29.88;13.60;;;18.40;99.90;;;;;;5042085;28;20045;-79
2023/10/03 06:16:31;;;;;;;32.50;13.05;;;18.40;99.90;;;;;;5048306;28;20079;-78
2023/10/03 06:18:57;;;;;;;29.25;12.88;;;18.50;99.90;;;;;;5043157;28;20040;-78
2023/10/03 06:21:24;;;;;;;30.23;12.27;;;18.50;99.90;;;;;;5045124;28;20493;-76
2023/10/03 06:23:51;;;;;;;32.65;12.60;;;18.50;99.90;;;;;;5040003;28;20449;-76
2023/10/03 06:26:20;;;;;;;30.60;13.02;;;18.50;99.90;;;;;;5032604;28;20120;-76
2023/10/03 06:28:49;;;;;;;26.25;11.57;;;18.50;99.90;;;;;;5031517;28;20079;-77
2023/10/03 06:31:18;;;;;;;26.52;11.98;;;18.50;99.90;;;;;;5042780;28;20045;-77
2023/10/03 06:33:44;;;;;;;29.65;10.45;;;18.50;99.90;;;;;;5037165;28;20393;-75
2023/10/03 06:36:11;;;;;;;23.15;10.65;;;18.50;99.90;;;;;;5064161;28;20541;-76
2023/10/03 06:38:37;;;;;;;21.20;9.82;;;18.50;99.90;;;;;;5067932;28;20087;-77
2023/10/03 06:41:04;;;;;;;22.20;9.32;;;18.50;99.90;;;;;;5051785;28;20084;-77
2023/10/03 06:43:30;;;;;;;22.98;9.30;;;18.50;99.90;;;;;;5039102;28;20041;-76
2023/10/03 06:45:56;;;;;;;23.50;9.20;;;18.50;99.90;;;;;;5038729;28;20127;-77
2023/10/03 06:48:23;;;;;;;21.50;9.65;;;18.40;99.90;;;;;;5042539;28;20149;-77
2023/10/03 06:50:49;;;;;;;20.85;8.25;;;18.50;99.90;;;;;;5025300;28;20049;-77
2023/10/03 06:53:18;;;;;;;18.48;8.35;;;18.50;99.90;;;;;;5043234;28;20135;-79
2023/10/03 06:55:44;;;;;;;24.77;9.15;;;18.50;99.90;;;;;;5027898;28;20048;-77
2023/10/03 06:58:12;;;;;;;19.02;8.57;;;18.50;99.90;;;;;;5035270;28;20511;-78
2023/10/03 07:00:38;;;;;;;29.13;8.77;;;18.50;99.90;;;;;;5034894;28;20033;-76
2023/10/03 07:03:04;;;;;;;20.58;7.43;;;18.50;99.90;;;;;;5028854;28;20052;-78
2023/10/03 07:05:30;;;;;;;19.45;7.65;;;18.50;99.90;;;;;;5032500;28;20044;-77
2023/10/03 07:07:55;;;;;;;17.30;7.38;;;18.50;99.90;;;;;;5054274;28;20053;-76
2023/10/03 07:10:22;;;;;;;20.92;7.30;;;18.50;99.90;;;;;;5052806;28;20041;-77
2023/10/03 07:12:48;;;;;;;20.15;7.80;;;18.50;99.90;;;;;;5038355;28;20385;-78
2023/10/03 07:15:14;;;;;;;21.17;7.22;;;18.50;99.90;;;;;;5044391;28;20072;-78
2023/10/03 07:17:41;;;;;;;14.13;6.50;;;18.50;99.90;;;;;;5043540;28;20076;-78
2023/10/03 07:20:09;;;;;;;24.45;7.15;;;18.40;99.90;;;;;;5030054;28;20102;-79
2023/10/03 07:22:36;;;;;;;18.80;7.07;;;18.40;99.90;;;;;;5046685;28;20049;-79
2023/10/03 07:25:06;;;;;;;14.43;6.55;;;18.30;99.90;;;;;;5046383;28;20405;-77
2023/10/03 07:27:33;;;;;;;21.35;7.30;;;18.20;99.90;;;;;;5029048;28;20139;-76
2023/10/03 07:29:59;;;;;;;14.43;5.68;;;18.30;99.90;;;;;;5050913;28;20129;-78
2023/10/03 07:32:24;;;;;;;15.45;6.10;;;18.20;99.90;;;;;;5050879;28;20056;-76
2023/10/03 07:34:50;;;;;;;18.70;6.35;;;18.20;99.90;;;;;;5047871;28;20037;-79
2023/10/03 07:37:17;;;;;;;20.38;5.80;;;18.20;99.90;;;;;;5046015;28;20045;-77
2023/10/03 07:39:43;;;;;;;17.33;5.88;;;18.20;99.90;;;;;;5048567;28;20401;-79
2023/10/03 07:42:11;;;;;;;17.10;6.53;;;18.10;99.90;;;;;;5042523;28;20359;-77
2023/10/03 07:44:37;;;;;;;21.30;6.25;;;18.10;99.90;;;;;;5040581;28;20489;-79
2023/10/03 07:47:04;;;;;;;18.23;5.97;;;18.10;99.90;;;;;;5048642;28;20044;-78
2023/10/03 07:49:31;;;;;;;17.98;6.63;;;18.10;99.90;;;;;;5027152;28;20051;-76
2023/10/03 07:51:59;;;;;;;16.27;6.85;;;18.10;99.90;;;;;;5050509;28;20064;-78
2023/10/03 07:54:28;;;;;;;19.00;6.30;;;18.10;99.90;;;;;;5054190;28;20052;-78
2023/10/03 07:56:55;;;;;;;15.00;5.97;;;18.00;99.90;;;;;;5052883;28;20128;-79
2023/10/03 07:59:25;;;;;;;19.33;5.85;;;17.90;99.90;;;;;;5049572;28;20144;-77
2023/10/03 08:01:51;;;;;;;18.95;5.20;;;17.90;99.90;;;;;;5030491;28;20500;-78
2023/10/03 08:04:17;;;;;;;18.15;5.82;;;17.80;99.90;;;;;;5051086;28;20047;-80
2023/10/03 08:06:43;;;;;;;20.98;6.70;;;17.80;99.90;;;;;;5051753;28;20412;-80
2023/10/03 08:09:10;;;;;;;22.70;6.25;;;17.70;99.90;;;;;;5045891;28;20049;-79
2023/10/03 08:11:39;;;;;;;17.17;7.18;;;17.70;99.90;;;;;;5046374;28;20036;-79
2023/10/03 08:14:11;;;;;;;14.25;5.85;;;17.70;99.90;;;;;;5052180;28;20051;-77
2023/10/03 08:16:41;;;;;;;15.27;5.15;;;17.70;99.90;;;;;;5051569;28;20053;-79
2023/10/03 08:19:21;;;;;;;15.70;5.63;;;17.70;99.90;;;;;;5035517;28;20114;-80
2023/10/03 08:21:54;;;;;;;20.25;5.30;;;17.60;99.90;;;;;;5042079;28;20088;-80
2023/10/03 08:24:24;;;;;;;13.87;5.50;;;17.60;99.90;;;;;;5019034;28;20037;-77
2023/10/03 08:27:01;;;;;;;17.02;5.10;;;17.60;99.90;;;;;;5048112;28;20403;-80
2023/10/03 08:29:27;;;;;;;13.85;4.93;;;17.60;99.90;;;;;;5053899;28;20045;-82
2023/10/03 08:31:57;;;;;;;20.30;5.93;;;17.50;99.90;;;;;;5035350;28;20047;-80
2023/10/03 08:34:27;;;;;;;16.65;4.40;;;17.40;99.90;;;;;;5048779;28;20052;-78
2023/10/03 08:36:58;;;;;;;11.48;3.50;;;17.40;99.90;;;;;;5029781;28;20072;-77
2023/10/03 08:39:32;;;;;;;13.98;3.72;;;17.30;99.90;;;;;;5030811;28;20137;-80
2023/10/03 08:42:13;;;;;;;12.35;3.38;;;17.30;99.90;;;;;;5038295;28;20067;-80
2023/10/03 08:44:53;;;;;;;10.82;3.45;;;17.20;99.90;;;;;;5044853;28;20067;-80
2023/10/03 08:47:29;;;;;;;9.52;2.85;;;17.20;99.90;;;;;;5042541;28;20041;-79
2023/10/03 08:50:10;;;;;;;11.82;1.90;;;17.20;99.90;;;;;;5043166;28;20056;-79
2023/10/03 08:52:47;;;;;;;9.25;1.95;;;17.10;99.90;;;;;;5038179;28;20046;-78
2023/10/03 08:55:19;;;;;;;8.60;1.70;;;17.10;99.90;;;;;;5045632;28;20037;-78
2023/10/03 08:57:47;;;;;;;14.50;2.00;;;17.10;99.90;;;;;;5048662;28;20042;-79
2023/10/03 09:00:14;;;;;;;6.38;1.25;;;17.10;99.90;;;;;;5049849;28;20044;-79
2023/10/03 09:02:47;;;;;;;9.40;1.25;;;17.10;99.90;;;;;;5051409;28;20045;-79
2023/10/03 09:05:20;;;;;;;6.55;1.25;;;17.10;99.90;;;;;;5039272;28;20124;-78
2023/10/03 09:07:50;;;;;;;9.70;1.30;;;17.20;99.90;;;;;;5043838;28;20053;-78
2023/10/03 09:10:24;;;;;;;9.98;1.40;;;17.20;99.90;;;;;;5047147;28;20092;-78
2023/10/03 09:13:03;;;;;;;7.93;1.35;;;17.20;99.90;;;;;;5045769;28;20397;-77
2023/10/03 09:15:37;;;;;;;5.80;1.52;;;17.20;99.90;;;;;;5043126;28;20060;-79
2023/10/03 09:18:10;;;;;;;7.17;1.10;;;17.30;99.90;;;;;;5048089;28;20115;-77
2023/10/03 09:20:36;;;;;;;7.18;0.95;;;17.20;99.90;;;;;;5047613;28;20137;-77
2023/10/03 09:23:07;;;;;;;6.72;1.10;;;17.20;99.90;;;;;;5048818;28;20052;-80
2023/10/03 09:25:35;;;;;;;6.25;1.10;;;17.10;99.90;;;;;;5052211;28;20049;-79
2023/10/03 09:28:12;;;;;;;5.85;1.00;;;16.90;99.90;;;;;;5040812;28;20053;-78
2023/10/03 09:30:38;;;;;;;7.10;1.23;;;16.80;99.90;;;;;;5044825;28;20053;-81
2023/10/03 09:33:17;;;;;;;5.68;0.80;;;16.70;99.90;;;;;;5051412;28;20409;-77
2023/10/03 09:36:02;;;;;;;9.32;1.02;;;16.60;99.90;;;;;;5047837;28;20171;-79
2023/10/03 09:38:44;;;;;;;3.72;0.60;;;16.50;99.90;;;;;;5044692;28;20042;-78
2023/10/03 09:41:17;;;;;;;7.57;0.77;;;16.50;99.90;;;;;;5047353;28;20045;-78
2023/10/03 09:43:54;;;;;;;4.30;0.60;;;16.40;99.90;;;;;;5045897;28;20083;-79
2023/10/03 09:46:25;;;;;;;7.53;0.60;;;16.40;99.90;;;;;;5046330;28;20049;-79
2023/10/03 09:48:53;;;;;;;4.45;0.45;;;16.40;99.90;;;;;;5048640;28;20064;-79
2023/10/03 09:51:45;;;;;;;5.40;0.60;;;16.40;99.90;;;;;;5059658;28;20049;-79
2023/10/03 09:54:15;;;;;;;5.18;0.50;;;16.30;99.90;;;;;;5053261;28;20056;-78
2023/10/03 09:56:50;;;;;;;4.68;1.00;;;16.40;99.90;;;;;;5050311;28;20065;-80
2023/10/03 09:59:18;;;;;;;5.65;0.57;;;16.40;99.90;;;;;;5041529;28;20047;-80
2023/10/03 10:01:45;;;;;;;6.03;0.70;;;16.30;99.90;;;;;;5049707;28;20102;-80
2023/10/03 10:04:14;;;;;;;4.63;0.40;;;16.30;99.90;;;;;;5047860;28;20038;-78
2023/10/03 10:07:14;;;;;;;5.05;0.85;;;16.30;99.90;;;;;;5043752;28;20049;-78
2023/10/03 10:09:52;;;;;;;4.85;0.60;;;16.30;99.90;;;;;;5042575;28;20570;-80
2023/10/03 10:12:19;;;;;;;3.42;0.40;;;16.30;99.90;;;;;;5042651;28;20119;-80
2023/10/03 10:17:54;;;;;;;1.80;0.30;;;16.30;99.90;;;;;;5040875;28;20459;-80
2023/10/03 10:20:38;;;;;;;1.92;0.50;;;16.30;99.90;;;;;;5037551;28;20140;-78
2023/10/03 10:23:12;;;;;;;2.35;0.30;;;16.30;99.90;;;;;;5050652;28;20400;-80
2023/10/03 10:25:43;;;;;;;0.88;0.20;;;16.30;99.90;;;;;;5044891;28;20059;-81
2023/10/03 10:28:11;;;;;;;4.13;0.50;;;16.30;99.90;;;;;;5050187;28;20126;-79
2023/10/03 10:30:44;;;;;;;2.05;0.50;;;16.30;99.90;;;;;;5043153;28;20052;-80
2023/10/03 10:33:16;;;;;;;1.75;0.40;;;16.30;99.90;;;;;;5052342;28;20500;-80
2023/10/03 10:35:53;;;;;;;2.63;0.43;;;16.30;99.90;;;;;;5041124;28;20088;-80
2023/10/03 10:38:18;;;;;;;1.60;0.40;;;16.30;99.90;;;;;;5047679;28;20473;-78
2023/10/03 10:44:13;;;;;;;2.20;0.40;;;16.30;99.90;;;;;;5046988;28;20052;-80
2023/10/03 10:46:46;;;;;;;4.05;0.70;;;16.30;99.90;;;;;;5054063;28;20041;-80
2023/10/03 10:49:30;;;;;;;4.43;0.40;;;16.30;99.90;;;;;;5041607;28;20083;-81
2023/10/03 10:51:57;;;;;;;5.13;0.70;;;16.30;99.90;;;;;;5037252;28;20505;-81
2023/10/03 10:54:26;;;;;;;7.00;0.63;;;16.30;99.90;;;;;;5038164;28;20820;-81
2023/10/03 10:56:59;;;;;;;4.05;0.77;;;16.40;99.90;;;;;;5040537;28;20049;-79
2023/10/03 10:59:30;;;;;;;4.78;0.68;;;16.40;99.90;;;;;;5039671;28;20033;-80
2023/10/03 11:01:57;;;;;;;3.95;0.57;;;16.30;99.90;;;;;;5043779;28;20037;-79
2023/10/03 11:04:28;;;;;;;2.58;0.57;;;16.40;99.90;;;;;;5048122;28;20072;-80
2023/10/03 11:06:54;;;;;;;2.83;0.60;;;16.40;99.90;;;;;;5045818;28;20084;-80
2023/10/03 11:09:21;;;;;;;6.15;0.80;;;16.40;99.90;;;;;;5054578;28;20056;-79
2023/10/03 11:11:47;;;;;;;4.32;0.73;;;16.50;99.90;;;;;;5046575;28;20056;-80
2023/10/03 11:14:31;;;;;;;4.55;0.75;;;16.50;99.90;;;;;;5052849;28;20060;-79
2023/10/03 11:16:58;;;;;;;5.72;0.75;;;16.50;99.90;;;;;;5049428;28;20041;-84
2023/10/03 11:19:25;;;;;;;3.83;0.68;;;16.40;99.90;;;;;;5045060;28;20477;-84
2023/10/03 11:21:51;;;;;;;4.75;1.05;;;16.30;99.90;;;;;;5042867;28;20064;-84
2023/10/03 11:24:19;;;;;;;5.80;0.82;;;16.30;99.90;;;;;;5042581;28;20128;-84
2023/10/03 11:26:45;;;;;;;4.32;0.80;;;16.20;99.90;;;;;;5051185;28;20404;-82
2023/10/03 11:29:12;;;;;;;4.22;0.88;;;16.10;99.90;;;;;;5043989;28;20598;-87
2023/10/03 11:31:45;;;;;;;7.60;1.08;;;16.10;99.90;;;;;;5043932;28;20048;-86
2023/10/03 11:34:11;;;;;;;7.22;1.30;;;16.10;99.90;;;;;;5043507;28;20059;-87
2023/10/03 11:36:44;;;;;;;5.70;1.38;;;16.00;99.90;;;;;;5047004;28;20411;-87
2023/10/03 11:39:12;;;;;;;6.10;1.20;;;15.90;99.90;;;;;;5048371;28;20394;-85
2023/10/03 11:41:38;;;;;;;10.27;1.30;;;16.00;99.90;;;;;;5031932;28;20041;-84
2023/10/03 11:44:15;;;;;;;6.13;1.50;;;15.90;99.90;;;;;;5047390;28;20041;-87
2023/10/03 11:46:41;;;;;;;7.25;1.40;;;15.90;99.90;;;;;;5040571;28;20045;-86
2023/10/03 11:49:08;;;;;;;8.90;1.48;;;16.00;99.90;;;;;;5042847;28;20491;-85
2023/10/03 11:51:38;;;;;;;5.63;1.20;;;16.00;99.90;;;;;;5045059;28;20080;-86
2023/10/03 11:54:08;;;;;;;8.25;1.60;;;15.90;99.90;;;;;;5055264;28;20049;-87
2023/10/03 11:56:45;;;;;;;7.22;1.75;;;16.00;99.90;;;;;;5056243;28;20045;-86
2023/10/03 11:59:14;;;;;;;6.45;1.58;;;16.00;99.90;;;;;;5050811;28;20504;-85
2023/10/03 12:01:44;;;;;;;8.35;2.03;;;16.00;99.90;;;;;;5048650;28;20040;-87
2023/10/03 12:04:11;;;;;;;9.82;1.88;;;15.90;99.90;;;;;;5044620;28;20514;-85
2023/10/03 12:06:37;;;;;;;8.68;1.77;;;16.00;99.90;;;;;;5054384;28;20110;-87
2023/10/03 12:09:08;;;;;;;7.85;2.00;;;16.00;99.90;;;;;;5050204;28;20081;-86
2023/10/03 12:11:37;;;;;;;8.27;1.52;;;16.00;99.90;;;;;;5049453;28;20477;-87
2023/10/03 12:14:03;;;;;;;7.50;1.67;;;16.00;99.90;;;;;;5045248;28;20052;-85
2023/10/03 12:16:29;;;;;;;6.78;1.77;;;16.00;99.90;;;;;;5052485;28;20488;-84
2023/10/03 12:18:55;;;;;;;8.90;1.70;;;16.00;99.90;;;;;;5049539;28;20057;-85
2023/10/03 12:21:21;;;;;;;7.53;2.28;;;15.90;99.90;;;;;;5046326;28;20140;-85
2023/10/03 12:23:46;;;;;;;7.55;2.00;;;15.90;99.90;;;;;;5051586;28;20466;-85
2023/10/03 12:26:12;;;;;;;8.07;2.20;;;15.90;99.90;;;;;;5045842;28;20078;-85
2023/10/03 12:28:38;;;;;;;7.20;1.92;;;15.90;99.90;;;;;;5049054;28;20042;-85
2023/10/03 12:31:05;;;;;;;6.43;1.70;;;15.80;99.90;;;;;;5048217;28;20056;-85
2023/10/03 12:33:31;;;;;;;8.32;1.77;;;15.80;99.90;;;;;;5048706;28;20475;-86
2023/10/03 12:36:00;;;;;;;4.75;1.65;;;15.80;99.90;;;;;;5046577;28;20099;-84
2023/10/03 12:38:26;;;;;;;7.63;1.73;;;15.80;99.90;;;;;;5044644;28;20049;-83
2023/10/03 12:40:52;;;;;;;11.90;2.10;;;15.80;99.90;;;;;;5047191;28;20419;-83
2023/10/03 12:43:18;;;;;;;10.02;1.92;;;15.80;99.90;;;;;;5054017;28;20407;-84
2023/10/03 12:45:44;;;;;;;4.78;1.90;;;15.80;99.90;;;;;;5048545;28;20041;-83
2023/10/03 12:48:10;;;;;;;9.70;2.25;;;15.90;99.90;;;;;;5041938;28;20084;-80
2023/10/03 12:50:37;;;;;;;10.07;1.70;;;15.80;99.90;;;;;;5049745;28;20082;-82
2023/10/03 12:53:04;;;;;;;6.95;1.83;;;15.90;99.90;;;;;;5047564;28;20045;-83